createdAt,value
2022-10-11T00:01:12.499Z,71.15
2022-10-11T00:02:44.045Z,70.92
2022-10-11T00:04:15.573Z,71.28
2022-10-11T00:05:47.027Z,71.58
2022-10-11T00:07:18.922Z,71.41
2022-10-11T00:08:51.724Z,71.12
2022-10-11T00:10:26.211Z,71.00
2022-10-11T00:11:59.532Z,71.52
2022-10-11T00:13:31.103Z,71.26
2022-10-11T00:15:05.419Z,71.55
2022-10-11T00:16:39.810Z,71.13
2022-10-11T00:18:11.267Z,71.61
2022-10-11T00:19:44.871Z,70.71
2022-10-11T00:21:16.428Z,71.20
2022-10-11T00:22:49.314Z,71.24
2022-10-11T00:24:22.347Z,71.30
2022-10-11T00:25:56.509Z,71.64
2022-10-11T00:27:28.255Z,71.68
2022-10-11T00:28:59.734Z,72.27
2022-10-11T00:30:31.604Z,72.00
2022-10-11T00:32:03.159Z,72.78
2022-10-11T00:33:34.895Z,72.48
2022-10-11T00:35:06.976Z,72.38
2022-10-11T00:36:38.508Z,73.14
2022-10-11T00:38:10.192Z,73.59
2022-10-11T00:39:43.036Z,73.78
2022-10-11T00:41:14.847Z,73.53
2022-10-11T00:42:46.978Z,74.27
2022-10-11T00:44:20.425Z,74.47
2022-10-11T00:46:04.274Z,74.29
2022-10-11T00:47:35.926Z,74.40
2022-10-11T00:49:13.457Z,74.95
2022-10-11T00:50:45.040Z,74.74
2022-10-11T00:52:20.500Z,75.08
2022-10-11T00:53:52.772Z,73.89
2022-10-11T00:55:26.799Z,74.39
2022-10-11T00:56:59.891Z,74.21
2022-10-11T00:58:33.093Z,73.82
2022-10-11T01:00:07.318Z,73.81
2022-10-11T01:01:38.905Z,73.81
2022-10-11T01:03:10.576Z,73.77
2022-10-11T01:04:42.247Z,73.22
2022-10-11T01:06:13.763Z,73.12
2022-10-11T01:07:46.841Z,74.02
2022-10-11T01:09:19.372Z,74.17
2022-10-11T01:10:52.390Z,74.10
2022-10-11T01:12:24.702Z,73.62
2022-10-11T01:14:07.126Z,73.62
2022-10-11T01:15:42.423Z,72.84
2022-10-11T01:17:20.745Z,72.74
2022-10-11T01:19:00.479Z,72.89
2022-10-11T01:20:43.253Z,73.22
2022-10-11T01:22:22.455Z,72.98
2022-10-11T01:24:08.583Z,72.20
2022-10-11T01:25:50.765Z,72.89
2022-10-11T01:27:43.188Z,72.33
2022-10-11T01:29:24.880Z,72.80
2022-10-11T01:31:02.290Z,72.17
2022-10-11T01:32:36.922Z,72.28
2022-10-11T01:34:11.788Z,72.33
2022-10-11T01:35:46.621Z,72.23
2022-10-11T01:37:23.804Z,72.84
2022-10-11T01:38:58.372Z,72.68
2022-10-11T01:40:33.660Z,72.34
2022-10-11T01:42:07.532Z,72.28
2022-10-11T01:43:40.450Z,72.14
2022-10-11T01:45:13.926Z,71.83
2022-10-11T01:46:46.704Z,71.74
2022-10-11T01:48:18.412Z,71.87
2022-10-11T01:49:53.091Z,71.40
2022-10-11T01:51:29.286Z,71.86
2022-10-11T01:53:06.438Z,71.73
2022-10-11T01:55:10.217Z,71.68
2022-10-11T01:56:56.604Z,71.95
2022-10-11T01:58:34.245Z,71.89
2022-10-11T02:00:10.943Z,71.16
2022-10-11T02:01:49.775Z,71.22
2022-10-11T02:03:28.896Z,71.19
2022-10-11T02:05:03.558Z,70.99
2022-10-11T02:06:39.906Z,71.06
2022-10-11T02:08:16.187Z,71.15
2022-10-11T02:09:50.879Z,70.92
2022-10-11T02:11:24.370Z,70.99
2022-10-11T02:12:59.921Z,70.68
2022-10-11T02:14:34.865Z,71.06
2022-10-11T02:16:10.062Z,70.70
2022-10-11T02:17:44.669Z,70.52
2022-10-11T02:19:19.066Z,70.79
2022-10-11T02:20:51.473Z,70.53
2022-10-11T02:22:25.756Z,70.94
2022-10-11T02:24:00.291Z,71.23
2022-10-11T02:25:34.606Z,71.30
2022-10-11T02:27:06.432Z,71.28
2022-10-11T02:28:39.747Z,71.01
2022-10-11T02:30:11.503Z,70.87
2022-10-11T02:31:43.732Z,70.30
2022-10-11T02:33:18.464Z,70.43
2022-10-11T02:34:53.591Z,70.18
2022-10-11T02:36:26.763Z,70.63
2022-10-11T02:38:01.830Z,70.83
2022-10-11T02:39:36.875Z,70.34
2022-10-11T02:41:21.345Z,70.17
2022-10-11T02:42:59.128Z,70.05
2022-10-11T02:44:33.514Z,70.28
2022-10-11T02:46:06.094Z,70.14
2022-10-11T02:47:38.157Z,70.30
2022-10-11T02:49:10.352Z,70.01
2022-10-11T02:50:43.546Z,69.95
2022-10-11T02:52:14.993Z,70.19
2022-10-11T02:53:47.235Z,69.64
2022-10-11T02:55:18.938Z,69.72
2022-10-11T02:56:50.381Z,69.53
2022-10-11T02:58:22.293Z,69.75
2022-10-11T02:59:53.736Z,69.50
2022-10-11T03:01:25.731Z,69.06
2022-10-11T03:02:57.239Z,69.54
2022-10-11T03:04:28.674Z,69.51
2022-10-11T03:06:05.220Z,69.41
2022-10-11T03:07:36.954Z,69.66
2022-10-11T03:09:08.414Z,69.40
2022-10-11T03:10:40.624Z,69.67
2022-10-11T03:12:12.089Z,69.79
2022-10-11T03:13:43.528Z,70.26
2022-10-11T03:15:15.163Z,70.02
2022-10-11T03:16:46.660Z,69.64
2022-10-11T03:18:18.248Z,70.12
2022-10-11T03:19:49.871Z,70.08
2022-10-11T03:21:25.051Z,69.72
2022-10-11T03:22:56.617Z,69.63
2022-10-11T03:24:28.075Z,69.67
2022-10-11T03:25:59.545Z,69.84
2022-10-11T03:27:31.117Z,69.35
2022-10-11T03:29:02.624Z,69.80
2022-10-11T03:30:34.132Z,69.84
2022-10-11T03:32:05.614Z,69.60
2022-10-11T03:33:37.131Z,69.67
2022-10-11T03:35:08.754Z,69.33
2022-10-11T03:36:41.682Z,69.79
2022-10-11T03:38:14.312Z,69.97
2022-10-11T03:39:45.973Z,70.03
2022-10-11T03:41:17.551Z,69.82
2022-10-11T03:42:49.031Z,69.90
2022-10-11T03:44:21.370Z,69.69
2022-10-11T03:45:52.804Z,69.60
2022-10-11T03:47:24.958Z,69.91
2022-10-11T03:48:56.439Z,69.60
2022-10-11T03:50:28.586Z,69.65
2022-10-11T03:52:01.448Z,69.85
2022-10-11T03:53:32.922Z,70.04
2022-10-11T03:55:04.864Z,69.68
2022-10-11T03:56:36.584Z,69.50
2022-10-11T03:58:08.229Z,69.75
2022-10-11T03:59:39.671Z,69.40
2022-10-11T04:01:11.111Z,69.42
2022-10-11T04:02:42.580Z,69.55
2022-10-11T04:04:13.995Z,69.50
2022-10-11T04:05:45.443Z,69.78
2022-10-11T04:07:18.597Z,69.94
2022-10-11T04:08:50.114Z,70.00
2022-10-11T04:10:21.594Z,69.78
2022-10-11T04:11:53.045Z,69.57
2022-10-11T04:13:24.520Z,69.47
2022-10-11T04:14:55.996Z,69.68
2022-10-11T04:16:27.462Z,69.43
2022-10-11T04:17:59.027Z,69.48
2022-10-11T04:19:30.531Z,69.67
2022-10-11T04:21:02.182Z,70.07
2022-10-11T04:22:35.106Z,70.32
2022-10-11T04:24:06.804Z,70.45
2022-10-11T04:25:38.252Z,70.43
2022-10-11T04:27:09.701Z,70.16
2022-10-11T04:28:41.199Z,69.92
2022-10-11T04:30:13.161Z,69.92
2022-10-11T04:31:44.616Z,70.01
2022-10-11T04:33:16.132Z,69.96
2022-10-11T04:34:47.576Z,70.14
2022-10-11T04:36:19.045Z,69.92
2022-10-11T04:37:51.850Z,69.93
2022-10-11T04:39:23.343Z,70.14
2022-10-11T04:40:54.908Z,70.50
2022-10-11T04:42:26.427Z,70.27
2022-10-11T04:43:57.836Z,70.07
2022-10-11T04:45:29.321Z,70.29
2022-10-11T04:47:01.289Z,70.05
2022-10-11T04:48:32.754Z,69.92
2022-10-11T04:50:04.536Z,69.78
2022-10-11T04:51:36.072Z,69.68
2022-10-11T04:53:08.987Z,69.83
2022-10-11T04:54:40.516Z,69.46
2022-10-11T04:56:12.068Z,69.34
2022-10-11T04:57:43.500Z,69.27
2022-10-11T04:59:15.001Z,69.27
2022-10-11T05:00:46.554Z,69.22
2022-10-11T05:02:18.250Z,69.00
2022-10-11T05:03:49.923Z,68.97
2022-10-11T05:05:21.392Z,68.71
2022-10-11T05:06:52.856Z,68.97
2022-10-11T05:08:25.890Z,68.88
2022-10-11T05:09:57.876Z,69.44
2022-10-11T05:11:29.279Z,69.14
2022-10-11T05:13:00.731Z,69.57
2022-10-11T05:14:32.222Z,69.24
2022-10-11T05:16:11.355Z,69.11
2022-10-11T05:17:43.240Z,69.60
2022-10-11T05:19:14.670Z,69.93
2022-10-11T05:20:46.162Z,70.09
2022-10-11T05:22:17.630Z,70.31
2022-10-11T05:23:51.634Z,70.47
2022-10-11T05:25:23.106Z,70.31
2022-10-11T05:26:54.658Z,70.14
2022-10-11T05:28:26.571Z,69.75
2022-10-11T05:29:58.087Z,70.03
2022-10-11T05:31:29.609Z,70.26
2022-10-11T05:33:01.112Z,70.10
2022-10-11T05:34:32.547Z,70.14
2022-10-11T05:36:04.759Z,70.12
2022-10-11T05:37:36.496Z,70.40
2022-10-11T05:39:09.255Z,70.22
2022-10-11T05:40:40.728Z,70.23
2022-10-11T05:42:12.281Z,70.26
2022-10-11T05:43:44.779Z,70.31
2022-10-11T05:45:16.285Z,70.86
2022-10-11T05:46:47.824Z,71.25
2022-10-11T05:48:19.369Z,71.03
2022-10-11T05:49:50.919Z,71.04
2022-10-11T05:51:22.334Z,71.25
2022-10-11T05:52:53.919Z,71.05
2022-10-11T05:54:28.817Z,71.21
2022-10-11T05:56:00.287Z,71.64
2022-10-11T05:57:31.838Z,71.75
2022-10-11T05:59:04.188Z,71.50
2022-10-11T06:00:36.909Z,71.91
2022-10-11T06:02:09.981Z,71.86
2022-10-11T06:03:41.408Z,71.63
2022-10-11T06:05:13.179Z,71.68
2022-10-11T06:06:44.692Z,71.33
2022-10-11T06:08:17.271Z,71.17
2022-10-11T06:09:50.688Z,70.83
2022-10-11T06:11:25.158Z,71.02
2022-10-11T06:12:56.639Z,71.04
2022-10-11T06:14:28.193Z,71.66
2022-10-11T06:15:59.608Z,71.60
2022-10-11T06:17:31.422Z,71.69
2022-10-11T06:19:03.636Z,71.99
2022-10-11T06:20:35.138Z,72.00
2022-10-11T06:22:06.613Z,72.27
2022-10-11T06:23:38.084Z,72.12
2022-10-11T06:25:11.067Z,71.58
2022-10-11T06:26:42.521Z,71.51
2022-10-11T06:28:13.977Z,71.72
2022-10-11T06:29:45.604Z,71.42
2022-10-11T06:31:17.014Z,72.14
2022-10-11T06:32:48.517Z,71.78
2022-10-11T06:34:20.133Z,72.17
2022-10-11T06:35:57.469Z,72.52
2022-10-11T06:37:29.290Z,72.68
2022-10-11T06:39:01.437Z,72.83
2022-10-11T06:40:34.335Z,72.99
2022-10-11T06:42:05.993Z,73.29
2022-10-11T06:43:37.490Z,73.92
2022-10-11T06:45:09.447Z,73.62
2022-10-11T06:46:41.385Z,73.33
2022-10-11T06:48:12.924Z,73.02
2022-10-11T06:49:44.398Z,72.69
2022-10-11T06:51:16.792Z,72.92
2022-10-11T06:52:48.326Z,72.32
2022-10-11T06:54:19.832Z,72.25
2022-10-11T06:55:52.630Z,72.04
2022-10-11T06:57:24.499Z,72.08
2022-10-11T06:58:57.095Z,71.93
2022-10-11T07:00:28.732Z,71.84
2022-10-11T07:02:00.275Z,71.80
2022-10-11T07:03:31.889Z,71.59
2022-10-11T07:05:03.520Z,71.60
2022-10-11T07:06:36.911Z,71.92
2022-10-11T07:08:08.424Z,71.75
2022-10-11T07:09:40.219Z,71.53
2022-10-11T07:11:13.760Z,71.09
2022-10-11T07:12:45.215Z,71.09
2022-10-11T07:14:16.745Z,71.16
2022-10-11T07:15:48.176Z,71.11
2022-10-11T07:17:19.702Z,70.85
2022-10-11T07:18:57.190Z,70.82
2022-10-11T07:20:31.224Z,71.08
2022-10-11T07:22:02.739Z,71.10
2022-10-11T07:23:34.278Z,71.04
2022-10-11T07:25:06.274Z,70.88
2022-10-11T07:26:39.444Z,71.07
2022-10-11T07:28:11.141Z,70.90
2022-10-11T07:29:43.122Z,70.94
2022-10-11T07:31:18.870Z,71.24
2022-10-11T07:32:50.679Z,71.27
2022-10-11T07:34:22.841Z,71.17
2022-10-11T07:35:56.986Z,71.04
2022-10-11T07:37:28.516Z,70.66
2022-10-11T07:39:00.268Z,71.24
2022-10-11T07:40:31.966Z,70.50
2022-10-11T07:42:04.949Z,70.71
2022-10-11T07:43:36.738Z,70.77
2022-10-11T07:45:08.591Z,70.83
2022-10-11T07:46:41.242Z,70.19
2022-10-11T07:48:13.130Z,70.91
2022-10-11T07:49:44.647Z,70.38
2022-10-11T07:51:17.109Z,70.37
2022-10-11T07:52:48.627Z,70.52
2022-10-11T07:54:20.199Z,69.84
2022-10-11T07:55:51.698Z,70.32
2022-10-11T07:57:24.580Z,70.32
2022-10-11T07:58:57.290Z,70.52
2022-10-11T08:00:28.810Z,70.95
2022-10-11T08:02:00.520Z,70.05
2022-10-11T08:03:32.179Z,71.00
2022-10-11T08:05:03.932Z,70.54
2022-10-11T08:06:36.506Z,70.82
2022-10-11T08:08:07.999Z,71.26
2022-10-11T08:09:39.512Z,71.31
2022-10-11T08:11:18.919Z,70.83
2022-10-11T08:12:51.985Z,71.07
2022-10-11T08:14:23.543Z,71.49
2022-10-11T08:15:55.294Z,71.09
2022-10-11T08:17:26.808Z,71.24
2022-10-11T08:18:58.340Z,71.30
2022-10-11T08:20:31.134Z,71.07
2022-10-11T08:22:02.842Z,71.07
2022-10-11T08:23:34.379Z,71.42
2022-10-11T08:25:06.141Z,72.45
2022-10-11T08:26:37.707Z,71.90
2022-10-11T08:28:15.712Z,72.11
2022-10-11T08:29:47.311Z,72.43
2022-10-11T08:31:19.031Z,72.00
2022-10-11T08:32:50.458Z,72.45
2022-10-11T08:34:22.139Z,71.72
2022-10-11T08:35:54.020Z,71.98
2022-10-11T08:37:25.526Z,71.13
2022-10-11T08:38:57.755Z,71.03
2022-10-11T08:40:34.282Z,70.74
2022-10-11T08:42:10.859Z,71.07
2022-10-11T08:43:51.328Z,70.57
2022-10-11T08:45:27.038Z,70.35
2022-10-11T08:47:00.641Z,69.76
2022-10-11T08:48:33.416Z,69.77
2022-10-11T08:50:05.725Z,69.84
2022-10-11T08:51:42.548Z,70.12
2022-10-11T08:53:18.011Z,70.03
2022-10-11T08:54:51.429Z,70.29
2022-10-11T08:56:23.978Z,70.22
2022-10-11T08:57:56.523Z,70.13
2022-10-11T08:59:33.095Z,69.60
2022-10-11T09:01:07.104Z,70.17
2022-10-11T09:03:06.971Z,69.94
2022-10-11T09:04:36.073Z,69.44
2022-10-11T09:06:12.530Z,69.12
2022-10-11T09:07:48.213Z,69.59
2022-10-11T09:09:25.493Z,69.26
2022-10-11T09:10:59.535Z,68.84
2022-10-11T09:12:39.804Z,69.60
2022-10-11T09:14:19.639Z,69.82
2022-10-11T09:15:57.005Z,69.87
2022-10-11T09:17:36.220Z,69.13
2022-10-11T09:19:21.768Z,69.21
2022-10-11T09:20:59.779Z,68.81
2022-10-11T09:22:36.793Z,68.67
2022-10-11T09:24:23.454Z,68.67
2022-10-11T09:25:58.294Z,68.82
2022-10-11T09:27:57.364Z,68.85
2022-10-11T09:29:30.190Z,68.24
2022-10-11T09:31:03.092Z,68.51
2022-10-11T09:32:37.664Z,68.56
2022-10-11T09:34:11.154Z,68.86
2022-10-11T09:35:44.268Z,68.18
2022-10-11T09:37:19.441Z,68.23
2022-10-11T09:38:54.459Z,69.22
2022-10-11T09:40:33.931Z,69.46
2022-10-11T09:42:07.669Z,69.09
2022-10-11T09:43:39.326Z,69.03
2022-10-11T09:45:14.264Z,69.28
2022-10-11T09:46:48.030Z,69.65
2022-10-11T09:48:20.986Z,69.54
2022-10-11T09:49:54.476Z,70.01
2022-10-11T09:51:27.360Z,69.66
2022-10-11T09:53:00.057Z,70.08
2022-10-11T09:54:42.036Z,69.66
2022-10-11T09:56:13.666Z,69.45
2022-10-11T09:57:54.108Z,69.30
2022-10-11T09:59:27.191Z,69.42
2022-10-11T10:01:05.139Z,69.36
2022-10-11T10:02:41.969Z,69.34
2022-10-11T10:04:14.460Z,68.79
2022-10-11T10:05:45.915Z,68.69
2022-10-11T10:07:17.643Z,68.76
2022-10-11T10:08:50.486Z,68.88
2022-10-11T10:10:26.525Z,68.86
2022-10-11T10:11:58.012Z,69.36
2022-10-11T10:13:34.869Z,69.95
2022-10-11T10:15:07.961Z,69.22
2022-10-11T10:16:39.395Z,69.88
2022-10-11T10:18:18.689Z,69.70
2022-10-11T10:19:51.754Z,69.15
2022-10-11T10:21:25.351Z,69.14
2022-10-11T10:22:57.044Z,69.01
2022-10-11T10:24:35.911Z,68.38
2022-10-11T10:26:15.681Z,69.00
2022-10-11T10:27:55.736Z,68.86
2022-10-11T10:29:27.168Z,69.43
2022-10-11T10:30:59.769Z,69.37
2022-10-11T10:32:34.254Z,69.06
2022-10-11T10:34:12.525Z,69.22
2022-10-11T10:35:46.521Z,68.79
2022-10-11T10:37:22.684Z,68.64
2022-10-11T10:38:57.020Z,67.69
2022-10-11T10:40:32.391Z,67.72
2022-10-11T10:42:06.390Z,67.83
2022-10-11T10:43:39.749Z,67.80
2022-10-11T10:45:18.754Z,67.97
2022-10-11T10:46:58.951Z,67.88
2022-10-11T10:49:11.638Z,67.77
2022-10-11T10:50:30.790Z,67.86
2022-10-11T10:52:24.143Z,67.59
2022-10-11T10:53:59.022Z,67.48
2022-10-11T10:55:34.308Z,67.14
2022-10-11T10:57:10.989Z,67.41
2022-10-11T10:58:49.904Z,67.68
2022-10-11T11:00:22.403Z,67.70
2022-10-11T11:01:56.118Z,67.13
2022-10-11T11:03:33.606Z,66.92
2022-10-11T11:05:11.613Z,66.71
2022-10-11T11:06:49.375Z,66.46
2022-10-11T11:08:29.739Z,65.93
2022-10-11T11:10:03.425Z,65.51
2022-10-11T11:11:39.721Z,65.50
2022-10-11T11:13:19.368Z,66.15
2022-10-11T11:14:55.317Z,66.27
2022-10-11T11:16:30.796Z,66.46
2022-10-11T11:18:11.093Z,66.82
2022-10-11T11:19:51.888Z,67.06
2022-10-11T11:21:29.053Z,67.11
2022-10-11T11:23:09.120Z,67.28
2022-10-11T11:24:46.719Z,66.88
2022-10-11T11:26:21.300Z,67.12
2022-10-11T11:28:01.820Z,67.17
2022-10-11T11:29:43.513Z,67.20
2022-10-11T11:31:20.828Z,67.10
2022-10-11T11:32:56.381Z,66.60
2022-10-11T11:34:30.599Z,66.12
2022-10-11T11:36:03.646Z,66.07
2022-10-11T11:37:38.081Z,65.74
2022-10-11T11:39:14.586Z,65.77
2022-10-11T11:40:49.630Z,65.69
2022-10-11T11:42:23.363Z,65.53
2022-10-11T11:43:59.139Z,65.55
2022-10-11T11:45:33.704Z,65.82
2022-10-11T11:47:10.444Z,65.77
2022-10-11T11:48:43.144Z,65.91
2022-10-11T11:50:22.667Z,65.53
2022-10-11T11:51:55.086Z,65.47
2022-10-11T11:53:48.582Z,65.21
2022-10-11T11:55:24.279Z,65.04
2022-10-11T11:57:00.428Z,65.47
2022-10-11T11:58:36.980Z,65.37
2022-10-11T12:00:14.469Z,65.53
2022-10-11T12:01:48.754Z,65.56
2022-10-11T12:03:23.428Z,65.49
2022-10-11T12:04:55.440Z,65.25
2022-10-11T12:06:28.838Z,63.42
2022-10-11T12:08:02.145Z,62.98
2022-10-11T12:09:34.565Z,62.50
2022-10-11T12:11:19.454Z,62.02
2022-10-11T12:13:01.286Z,60.88
2022-10-11T12:14:37.823Z,61.92
2022-10-11T12:16:10.904Z,61.06
2022-10-11T12:17:57.475Z,59.84
2022-10-11T12:19:28.938Z,60.85
2022-10-11T12:21:02.106Z,59.98
2022-10-11T12:22:37.958Z,58.04
2022-10-11T12:24:10.622Z,57.58
2022-10-11T12:25:45.144Z,58.02
2022-10-11T12:27:31.455Z,58.08
2022-10-11T12:29:25.884Z,57.30
2022-10-11T12:31:04.567Z,56.75
2022-10-11T12:32:51.159Z,57.09
2022-10-11T12:34:34.423Z,55.81
2022-10-11T12:36:22.878Z,56.34
2022-10-11T12:38:02.698Z,55.19
2022-10-11T12:39:42.391Z,55.11
2022-10-11T12:41:28.706Z,54.83
2022-10-11T12:43:10.804Z,54.11
2022-10-11T12:45:03.585Z,51.82
2022-10-11T12:46:39.540Z,51.23
2022-10-11T12:48:19.497Z,50.74
2022-10-11T12:49:59.327Z,50.83
2022-10-11T12:51:35.082Z,50.41
2022-10-11T12:53:11.890Z,50.07
2022-10-11T12:55:04.444Z,49.62
2022-10-11T12:56:42.488Z,49.07
2022-10-11T12:58:27.687Z,49.57
2022-10-11T13:00:16.046Z,48.27
2022-10-11T13:01:48.755Z,47.88
2022-10-11T13:03:31.204Z,47.25
2022-10-11T13:05:08.152Z,47.32
2022-10-11T13:06:45.239Z,46.75
2022-10-11T13:08:20.414Z,46.76
2022-10-11T13:09:53.984Z,46.51
2022-10-11T13:11:28.120Z,46.79
2022-10-11T13:13:04.211Z,47.43
2022-10-11T13:14:37.503Z,46.58
2022-10-11T13:16:13.789Z,46.01
2022-10-11T13:17:45.427Z,45.95
2022-10-11T13:19:17.376Z,44.69
2022-10-11T13:20:48.886Z,44.99
2022-10-11T13:22:22.719Z,45.33
2022-10-11T13:23:54.699Z,44.12
2022-10-11T13:25:27.407Z,44.10
2022-10-11T13:26:58.886Z,43.22
2022-10-11T13:28:35.584Z,43.90
2022-10-11T13:30:11.276Z,43.53
2022-10-11T13:31:45.140Z,43.32
2022-10-11T13:33:18.958Z,43.15
2022-10-11T13:34:53.657Z,42.43
2022-10-11T13:36:26.786Z,41.71
2022-10-11T13:37:58.546Z,41.77
2022-10-11T13:39:31.625Z,41.38
2022-10-11T13:41:04.728Z,40.95
2022-10-11T13:42:36.247Z,40.08
2022-10-11T13:44:09.054Z,40.29
2022-10-11T13:45:41.329Z,39.40
2022-10-11T13:47:15.286Z,39.45
2022-10-11T13:48:56.197Z,38.45
2022-10-11T13:50:33.588Z,37.84
2022-10-11T13:52:17.436Z,37.22
2022-10-11T13:53:58.635Z,38.46
2022-10-11T13:55:32.098Z,38.28
2022-10-11T13:57:03.897Z,38.80
2022-10-11T13:58:38.589Z,38.25
2022-10-11T14:00:30.723Z,39.10
2022-10-11T14:02:04.314Z,38.98
2022-10-11T14:03:41.128Z,39.54
2022-10-11T14:05:21.241Z,39.12
2022-10-11T14:06:54.454Z,39.28
2022-10-11T14:08:30.578Z,39.73
2022-10-11T14:10:02.236Z,40.00
2022-10-11T14:11:34.711Z,39.90
2022-10-11T14:13:07.516Z,39.93
2022-10-11T14:14:40.989Z,40.00
2022-10-11T14:16:14.098Z,40.05
2022-10-11T14:17:45.819Z,40.51
2022-10-11T14:19:20.003Z,40.86
2022-10-11T14:20:51.607Z,40.56
2022-10-11T14:22:23.047Z,40.45
2022-10-11T14:23:55.839Z,40.14
2022-10-11T14:25:27.309Z,40.73
2022-10-11T14:26:59.086Z,40.96
2022-10-11T14:28:30.583Z,40.79
2022-10-11T14:31:56.534Z,41.74
2022-10-11T14:33:28.020Z,41.59
2022-10-11T14:35:00.867Z,41.32
2022-10-11T14:36:32.525Z,41.37
2022-10-11T14:38:03.996Z,41.84
2022-10-11T14:39:35.526Z,41.99
2022-10-11T14:41:07.006Z,42.21
2022-10-11T14:42:38.449Z,42.52
2022-10-11T14:44:10.005Z,42.79
2022-10-11T14:45:41.502Z,42.85
2022-10-11T14:47:14.721Z,42.81
2022-10-11T14:49:01.452Z,42.49
2022-10-11T14:50:36.780Z,43.11
2022-10-11T14:52:10.795Z,43.12
2022-10-11T14:53:46.163Z,43.15
2022-10-11T14:55:17.590Z,43.18
2022-10-11T14:56:49.556Z,43.16
2022-10-11T14:58:21.033Z,43.16
2022-10-11T14:59:52.498Z,42.94
2022-10-11T15:01:24.276Z,43.32
2022-10-11T15:02:56.010Z,43.59
2022-10-11T15:04:27.687Z,43.26
2022-10-11T15:06:00.530Z,43.51
2022-10-11T15:07:33.051Z,43.90
2022-10-11T15:09:04.789Z,44.03
2022-10-11T15:10:37.068Z,44.22
2022-10-11T15:12:08.950Z,44.15
2022-10-11T15:13:40.377Z,44.00
2022-10-11T15:15:16.737Z,44.10
2022-10-11T15:16:48.587Z,44.38
2022-10-11T15:18:21.162Z,44.38
2022-10-11T15:19:52.599Z,44.49
2022-10-11T15:21:26.881Z,44.51
2022-10-11T15:22:58.934Z,44.69
2022-10-11T15:24:30.420Z,44.88
2022-10-11T15:26:01.932Z,45.29
2022-10-11T15:27:33.358Z,45.43
2022-10-11T15:29:05.980Z,45.30
2022-10-11T15:30:41.372Z,45.18
2022-10-11T15:32:13.118Z,45.68
2022-10-11T15:33:44.708Z,45.77
2022-10-11T15:35:16.604Z,45.89
2022-10-11T15:36:49.967Z,45.89
2022-10-11T15:38:22.406Z,45.74
2022-10-11T15:39:53.854Z,45.85
2022-10-11T15:41:25.395Z,45.80
2022-10-11T15:42:56.937Z,45.87
2022-10-11T15:44:28.395Z,45.82
2022-10-11T15:45:59.980Z,45.83
2022-10-11T15:47:31.447Z,45.75
2022-10-11T15:49:06.642Z,45.83
2022-10-11T15:50:38.374Z,46.17
2022-10-11T15:52:11.330Z,46.27
2022-10-11T15:53:42.872Z,46.25
2022-10-11T15:55:14.426Z,46.16
2022-10-11T15:56:45.852Z,46.38
2022-10-11T15:58:18.128Z,46.68
2022-10-11T15:59:49.559Z,46.62
2022-10-11T16:01:21.099Z,47.01
2022-10-11T16:02:53.260Z,46.89
2022-10-11T16:04:24.725Z,46.97
2022-10-11T16:05:58.926Z,47.04
2022-10-11T16:07:35.386Z,47.44
2022-10-11T16:09:07.112Z,47.62
2022-10-11T16:10:38.761Z,47.55
2022-10-11T16:12:10.251Z,48.00
2022-10-11T16:13:41.720Z,48.63
2022-10-11T16:15:13.605Z,48.61
2022-10-11T16:16:45.044Z,48.44
2022-10-11T16:18:21.031Z,48.92
2022-10-11T16:19:52.502Z,48.53
2022-10-11T16:21:24.153Z,48.54
2022-10-11T16:22:57.467Z,48.65
2022-10-11T16:24:28.926Z,48.50
2022-10-11T16:26:01.420Z,48.73
2022-10-11T16:27:33.393Z,48.52
2022-10-11T16:29:05.013Z,48.61
2022-10-11T16:30:38.763Z,48.60
2022-10-11T16:32:10.268Z,48.93
2022-10-11T16:33:47.786Z,48.73
2022-10-11T16:35:19.373Z,49.27
2022-10-11T16:36:50.979Z,49.46
2022-10-11T16:38:23.958Z,49.41
2022-10-11T16:39:55.448Z,49.87
2022-10-11T16:41:26.943Z,49.73
2022-10-11T16:42:58.416Z,49.63
2022-10-11T16:44:29.859Z,50.24
2022-10-11T16:46:01.347Z,50.10
2022-10-11T16:47:32.871Z,50.04
2022-10-11T16:49:04.570Z,50.70
2022-10-11T16:50:39.538Z,51.04
2022-10-11T16:52:13.913Z,50.65
2022-10-11T16:53:46.793Z,50.75
2022-10-11T16:55:18.294Z,51.10
2022-10-11T16:56:50.064Z,51.49
2022-10-11T16:58:21.496Z,51.74
2022-10-11T16:59:52.941Z,51.52
2022-10-11T17:01:24.822Z,52.08
2022-10-11T17:02:56.316Z,51.80
2022-10-11T17:04:27.786Z,51.89
2022-10-11T17:05:59.199Z,52.04
2022-10-11T17:07:31.250Z,51.98
2022-10-11T17:09:04.574Z,52.71
2022-10-11T17:10:44.386Z,52.69
2022-10-11T17:12:17.048Z,52.98
2022-10-11T17:13:48.949Z,53.18
2022-10-11T17:15:21.782Z,52.98
2022-10-11T17:16:53.395Z,53.71
2022-10-11T17:18:24.887Z,53.77
2022-10-11T17:19:56.322Z,54.30
2022-10-11T17:21:27.987Z,54.32
2022-10-11T17:22:59.510Z,54.64
2022-10-11T17:24:34.268Z,54.81
2022-10-11T17:26:11.015Z,54.87
2022-10-11T17:27:42.937Z,55.46
2022-10-11T17:29:15.081Z,55.71
2022-10-11T17:30:52.231Z,56.30
2022-10-11T17:32:23.688Z,56.69
2022-10-11T17:33:57.515Z,57.07
2022-10-11T17:35:30.831Z,57.33
2022-10-11T17:37:02.582Z,57.52
2022-10-11T17:38:34.090Z,57.52
2022-10-11T17:40:07.893Z,57.62
2022-10-11T17:41:39.400Z,57.86
2022-10-11T17:43:11.185Z,57.78
2022-10-11T17:44:42.634Z,57.91
2022-10-11T17:46:15.165Z,58.00
2022-10-11T17:47:46.714Z,57.95
2022-10-11T17:49:18.261Z,57.75
2022-10-11T17:50:50.838Z,57.69
2022-10-11T17:52:22.443Z,57.78
2022-10-11T17:53:54.201Z,57.72
2022-10-11T17:55:26.996Z,57.97
2022-10-11T17:56:58.568Z,58.09
2022-10-11T17:58:30.032Z,58.01
2022-10-11T18:00:03.763Z,58.18
2022-10-11T18:01:36.137Z,58.16
2022-10-11T18:03:07.680Z,58.19
2022-10-11T18:04:39.198Z,58.52
2022-10-11T18:06:11.990Z,58.75
2022-10-11T18:07:43.416Z,58.77
2022-10-11T18:09:16.311Z,58.73
2022-10-11T18:10:49.200Z,58.68
2022-10-11T18:12:20.657Z,58.87
2022-10-11T18:13:52.734Z,58.75
2022-10-11T18:15:24.213Z,59.19
2022-10-11T18:16:55.690Z,59.23
2022-10-11T18:18:27.122Z,59.22
2022-10-11T18:19:58.625Z,59.39
2022-10-11T18:21:34.282Z,59.29
2022-10-11T18:23:06.404Z,59.22
2022-10-11T18:24:39.080Z,59.25
2022-10-11T18:26:14.148Z,59.51
2022-10-11T18:27:45.674Z,59.39
2022-10-11T18:29:17.134Z,59.63
2022-10-11T18:30:48.692Z,59.63
2022-10-11T18:32:20.871Z,59.38
2022-10-11T18:33:52.830Z,59.60
2022-10-11T18:35:24.381Z,59.73
2022-10-11T18:36:55.913Z,59.91
2022-10-11T18:38:27.461Z,59.75
2022-10-11T18:39:59.212Z,60.14
2022-10-11T18:41:32.830Z,60.08
2022-10-11T18:43:04.366Z,59.95
2022-10-11T18:44:35.840Z,59.95
2022-10-11T18:46:08.312Z,60.25
2022-10-11T18:47:39.752Z,60.06
2022-10-11T18:49:11.630Z,59.97
2022-10-11T18:50:43.112Z,60.29
2022-10-11T18:52:14.624Z,60.75
2022-10-11T18:53:46.656Z,60.49
2022-10-11T18:55:18.157Z,60.69
2022-10-11T18:56:51.047Z,60.89
2022-10-11T18:58:22.602Z,60.53
2022-10-11T18:59:54.106Z,61.27
2022-10-11T19:01:27.650Z,60.82
2022-10-11T19:02:59.188Z,61.54
2022-10-11T19:04:35.265Z,61.45
2022-10-11T19:06:08.431Z,61.72
2022-10-11T19:07:40.358Z,61.60
2022-10-11T19:09:12.958Z,61.51
2022-10-11T19:10:44.482Z,61.59
2022-10-11T19:12:17.460Z,62.35
2022-10-11T19:13:54.063Z,61.74
2022-10-11T19:15:28.796Z,62.32
2022-10-11T19:17:00.558Z,62.55
2022-10-11T19:18:32.017Z,62.41
2022-10-11T19:20:03.633Z,62.23
2022-10-11T19:21:35.133Z,61.90
2022-10-11T19:23:07.817Z,61.97
2022-10-11T19:24:39.328Z,62.18
2022-10-11T19:26:12.999Z,62.12
2022-10-11T19:27:45.837Z,62.15
2022-10-11T19:29:19.015Z,62.19
2022-10-11T19:30:50.678Z,62.15
2022-10-11T19:32:22.144Z,62.25
2022-10-11T19:33:53.907Z,62.22
2022-10-11T19:35:25.452Z,62.55
2022-10-11T19:36:57.708Z,62.29
2022-10-11T19:38:29.449Z,62.54
2022-10-11T19:40:01.006Z,62.50
2022-10-11T19:41:32.601Z,62.04
2022-10-11T19:43:05.544Z,62.87
2022-10-11T19:44:39.805Z,62.61
2022-10-11T19:46:20.193Z,62.23
2022-10-11T19:47:55.025Z,63.24
2022-10-11T19:49:26.715Z,62.82
2022-10-11T19:51:01.529Z,62.31
2022-10-11T19:52:33.449Z,62.21
2022-10-11T19:54:06.604Z,62.50
2022-10-11T19:55:38.878Z,62.46
2022-10-11T19:57:12.444Z,62.25
2022-10-11T19:58:45.320Z,62.57
2022-10-11T20:00:16.995Z,63.43
2022-10-11T20:01:52.682Z,62.83
2022-10-11T20:03:24.633Z,63.50
2022-10-11T20:04:56.099Z,63.72
2022-10-11T20:06:28.211Z,63.21
2022-10-11T20:07:59.710Z,64.11
2022-10-11T20:09:31.288Z,63.67
2022-10-11T20:11:03.679Z,63.71